Time;durP1;ratioP1;P1;durP2;ratioP2;P2;SDS_P1;SDS_P2;PMS_P1;PMS_P2;Temp;Humidity;BMP_temperature;BMP_pressure;BME280_temperature;BME280_humidity;BME280_pressure;Samples;Min_cycle;Max_cycle;Signal;HPM_P1;HPM_P2
2022/03/12 00:00:35;;;;;;;17.85;6.80;;;8.70;99.90;;;;;;5085830;27;20054;-91
2022/03/12 00:03:01;;;;;;;16.50;6.88;;;6.90;99.90;;;;;;5099862;27;20395;-91
2022/03/12 00:05:30;;;;;;;14.27;6.43;;;6.60;99.90;;;;;;5118809;27;20051;-90
2022/03/12 00:07:57;;;;;;;17.13;6.95;;;7.00;99.90;;;;;;5101059;27;20082;-90
2022/03/12 00:10:23;;;;;;;16.02;7.10;;;7.40;99.90;;;;;;5076219;27;20120;-90
2022/03/12 00:12:50;;;;;;;14.25;7.00;;;6.60;99.90;;;;;;5120374;27;20329;-91
2022/03/12 00:15:16;;;;;;;15.15;7.70;;;6.70;99.90;;;;;;5117774;27;20047;-91
2022/03/12 00:17:46;;;;;;;14.45;7.00;;;7.60;99.90;;;;;;5117542;27;20051;-91
2022/03/12 00:20:19;;;;;;;15.50;6.60;;;6.70;99.90;;;;;;5112123;28;20043;-91
2022/03/12 00:22:47;;;;;;;19.95;7.13;;;6.80;99.90;;;;;;5123989;27;20044;-90
2022/03/12 00:25:25;;;;;;;14.85;7.47;;;7.60;99.90;;;;;;5092304;27;20044;-91
2022/03/12 00:27:51;;;;;;;15.23;7.43;;;6.50;99.90;;;;;;5073460;27;20040;-91
2022/03/12 00:30:24;;;;;;;14.55;6.32;;;6.60;99.90;;;;;;5118635;27;20054;-91
2022/03/12 00:32:52;;;;;;;13.60;6.80;;;6.50;99.90;;;;;;5100030;27;20068;-91
2022/03/12 00:35:20;;;;;;;13.93;6.68;;;6.30;99.90;;;;;;5117359;27;20043;-91
2022/03/12 00:37:46;;;;;;;17.23;6.93;;;7.50;99.90;;;;;;5112902;27;20047;-91
2022/03/12 00:40:15;;;;;;;15.15;7.18;;;6.20;99.90;;;;;;5098642;27;20043;-91
2022/03/12 00:42:42;;;;;;;15.40;7.97;;;6.50;99.90;;;;;;5094407;27;20043;-90
2022/03/12 00:45:10;;;;;;;20.02;6.97;;;8.50;99.90;;;;;;5097413;27;20066;-91
2022/03/12 00:47:36;;;;;;;15.20;7.68;;;;;;;;;;5116048;27;20043;-90
2022/03/12 00:50:02;;;;;;;17.80;7.28;;;6.50;99.90;;;;;;5093717;27;20047;-90
2022/03/12 00:52:28;;;;;;;17.83;7.72;;;6.60;99.90;;;;;;5094976;27;20047;-92
2022/03/12 00:54:53;;;;;;;15.07;7.10;;;6.60;99.90;;;;;;5116007;27;20095;-90
2022/03/12 00:57:19;;;;;;;14.80;6.57;;;7.90;99.90;;;;;;5094663;27;20047;-91
2022/03/12 00:59:45;;;;;;;17.00;7.50;;;8.50;99.90;;;;;;5112905;27;20514;-90
2022/03/12 01:02:14;;;;;;;23.42;7.03;;;7.70;99.90;;;;;;5115918;27;20066;-91
2022/03/12 01:04:40;;;;;;;14.77;7.65;;;7.90;99.90;;;;;;5117822;27;20043;-90
2022/03/12 01:07:06;;;;;;;15.70;6.53;;;8.60;99.90;;;;;;5097682;27;20055;-90
2022/03/12 01:09:32;;;;;;;13.75;6.82;;;6.60;99.90;;;;;;5117499;27;20368;-90
2022/03/12 01:11:58;;;;;;;17.20;6.90;;;5.80;99.90;;;;;;5114200;27;20086;-90
2022/03/12 01:14:24;;;;;;;14.73;7.28;;;;;;;;;;5095872;27;20432;-91
2022/03/12 01:16:50;;;;;;;11.88;6.40;;;5.00;99.90;;;;;;5096770;28;20074;-91
2022/03/12 01:19:16;;;;;;;16.90;6.68;;;7.80;99.90;;;;;;5102025;27;20495;-91
2022/03/12 01:21:42;;;;;;;12.60;6.65;;;;;;;;;;5119323;27;20039;-90
2022/03/12 01:24:08;;;;;;;14.30;6.30;;;;;;;;;;5117063;27;21031;-91
2022/03/12 01:26:40;;;;;;;14.27;6.63;;;6.80;99.90;;;;;;5098361;28;20384;-90
2022/03/12 01:29:07;;;;;;;14.10;6.85;;;7.80;99.90;;;;;;5114082;27;20047;-91
2022/03/12 01:31:34;;;;;;;15.77;7.30;;;6.80;99.90;;;;;;5083344;28;20051;-91
2022/03/12 01:34:01;;;;;;;13.43;6.63;;;8.60;99.90;;;;;;5093361;28;20055;-91
2022/03/12 01:36:26;;;;;;;17.30;7.22;;;6.70;99.90;;;;;;5106218;28;20074;-92
2022/03/12 01:38:54;;;;;;;13.82;7.07;;;7.10;99.90;;;;;;5101080;27;20031;-92
2022/03/12 01:41:31;;;;;;;15.55;7.07;;;7.40;99.90;;;;;;5067021;28;20120;-92
2022/03/12 01:43:58;;;;;;;17.58;6.40;;;6.90;99.90;;;;;;5082392;28;20134;-92
2022/03/12 01:46:50;;;;;;;14.27;6.82;;;8.10;99.90;;;;;;5115499;27;20615;-91
2022/03/12 01:49:23;;;;;;;12.73;6.10;;;7.00;99.90;;;;;;5075680;27;20055;-91
2022/03/12 01:51:52;;;;;;;17.08;6.93;;;7.60;99.90;;;;;;5099541;28;20058;-91
2022/03/12 01:54:21;;;;;;;15.68;7.70;;;6.60;99.90;;;;;;5114732;27;20436;-91
2022/03/12 01:56:47;;;;;;;16.45;6.97;;;6.90;99.90;;;;;;5114947;27;20075;-90
2022/03/12 01:59:13;;;;;;;13.38;6.40;;;7.00;99.90;;;;;;5117456;28;20081;-91
2022/03/12 02:01:39;;;;;;;28.05;7.18;;;;;;;;;;5113489;28;20540;-91
2022/03/12 02:04:07;;;;;;;20.55;7.78;;;7.00;99.90;;;;;;5078067;28;20054;-90
2022/03/12 02:06:34;;;;;;;15.15;7.55;;;7.00;99.90;;;;;;5119290;28;20047;-91
2022/03/12 02:09:00;;;;;;;16.90;6.93;;;;;;;;;;5096981;28;20503;-90
2022/03/12 02:11:27;;;;;;;16.55;7.50;;;7.00;99.90;;;;;;5115742;28;20051;-91
2022/03/12 02:14:09;;;;;;;13.13;6.95;;;6.80;99.90;;;;;;5114503;28;20051;-91
2022/03/12 02:16:35;;;;;;;19.35;7.38;;;6.90;99.90;;;;;;5116305;28;20104;-91
2022/03/12 02:19:01;;;;;;;12.65;7.03;;;9.30;99.90;;;;;;5078953;28;20039;-90
2022/03/12 02:21:34;;;;;;;16.67;7.15;;;7.20;99.90;;;;;;5111402;28;20614;-91
2022/03/12 02:24:07;;;;;;;15.30;6.70;;;7.00;99.90;;;;;;5098335;28;20097;-91
2022/03/12 02:26:33;;;;;;;16.30;7.63;;;6.90;99.90;;;;;;5096716;28;20035;-91
2022/03/12 02:28:59;;;;;;;16.75;6.85;;;;;;;;;;5096790;28;20047;-92
2022/03/12 02:31:26;;;;;;;14.88;6.53;;;7.10;99.90;;;;;;5117271;28;20148;-92
2022/03/12 02:33:58;;;;;;;15.53;7.27;;;6.90;99.90;;;;;;5097508;28;20419;-92
2022/03/12 02:36:26;;;;;;;14.73;7.25;;;7.00;99.90;;;;;;5112581;28;20505;-90
2022/03/12 02:38:53;;;;;;;12.65;6.88;;;7.00;99.90;;;;;;5093383;27;20047;-92
2022/03/12 02:41:22;;;;;;;14.18;7.25;;;8.60;99.90;;;;;;5121481;27;20036;-91
2022/03/12 02:43:49;;;;;;;15.18;6.88;;;7.00;99.90;;;;;;5098107;27;20718;-92
2022/03/12 02:46:15;;;;;;;16.35;7.40;;;8.70;99.90;;;;;;5118294;27;20455;-91
2022/03/12 02:48:49;;;;;;;14.88;7.28;;;7.20;99.90;;;;;;5100667;27;20368;-91
2022/03/12 02:51:16;;;;;;;14.50;7.15;;;8.70;99.90;;;;;;5102352;27;20046;-91
2022/03/12 02:53:43;;;;;;;15.77;6.53;;;10.20;99.90;;;;;;5102167;27;20689;-91
2022/03/12 02:56:10;;;;;;;16.13;7.57;;;7.10;99.90;;;;;;5087102;27;20079;-90
2022/03/12 02:58:35;;;;;;;16.45;6.95;;;7.10;99.90;;;;;;5116946;27;20056;-91
2022/03/12 03:01:04;;;;;;;12.88;6.72;;;7.10;99.90;;;;;;5107462;27;20506;-91
2022/03/12 03:03:35;;;;;;;15.85;7.20;;;9.20;99.90;;;;;;5101211;27;20047;-90
2022/03/12 03:06:01;;;;;;;12.88;7.22;;;6.80;99.90;;;;;;5103141;27;20043;-91
2022/03/12 03:08:28;;;;;;;13.57;6.80;;;;;;;;;;5101727;27;20443;-89
2022/03/12 03:10:58;;;;;;;14.63;7.37;;;7.10;99.90;;;;;;5087963;27;20311;-89
2022/03/12 03:13:36;;;;;;;14.40;7.07;;;7.80;99.90;;;;;;5117632;27;20324;-91
2022/03/12 03:16:07;;;;;;;14.40;6.97;;;7.00;99.90;;;;;;5116480;27;20077;-90
2022/03/12 03:18:38;;;;;;;12.43;6.60;;;6.90;99.90;;;;;;5099243;27;20460;-92
2022/03/12 03:21:07;;;;;;;13.88;6.90;;;7.20;99.90;;;;;;5084792;27;20055;-91
2022/03/12 03:23:33;;;;;;;15.20;6.93;;;7.00;99.90;;;;;;5115443;27;20047;-91
2022/03/12 03:26:00;;;;;;;16.05;7.45;;;7.10;99.90;;;;;;5097738;27;20567;-91
2022/03/12 03:28:26;;;;;;;16.75;7.10;;;7.20;99.90;;;;;;5118966;27;20040;-92
2022/03/12 03:30:52;;;;;;;17.27;7.43;;;8.70;99.90;;;;;;5119522;27;20047;-91
2022/03/12 03:33:21;;;;;;;17.48;7.05;;;6.90;99.90;;;;;;5099565;27;20031;-89
2022/03/12 03:35:48;;;;;;;20.05;7.05;;;6.90;99.90;;;;;;5119386;27;20510;-91
2022/03/12 03:38:15;;;;;;;16.45;7.28;;;7.00;99.90;;;;;;5118245;27;20047;-91
2022/03/12 03:40:43;;;;;;;15.02;7.45;;;6.90;99.90;;;;;;5118113;27;20107;-92
2022/03/12 03:43:13;;;;;;;14.65;6.78;;;6.70;99.90;;;;;;5093742;27;20038;-91
2022/03/12 03:45:40;;;;;;;14.23;7.53;;;8.10;99.90;;;;;;5123892;27;20208;-91
2022/03/12 03:48:12;;;;;;;17.40;7.03;;;8.20;99.90;;;;;;5098095;28;20399;-91
2022/03/12 03:50:39;;;;;;;14.45;7.30;;;5.80;99.90;;;;;;5120978;27;20043;-91
2022/03/12 03:53:05;;;;;;;16.42;7.57;;;8.60;99.90;;;;;;5118354;27;20043;-91
2022/03/12 03:55:32;;;;;;;15.70;7.47;;;7.30;99.90;;;;;;5099655;27;20513;-91
2022/03/12 03:57:59;;;;;;;13.63;7.00;;;7.50;99.90;;;;;;5087590;27;20492;-92
2022/03/12 04:00:26;;;;;;;14.70;7.70;;;6.80;99.90;;;;;;5115855;27;20094;-91
2022/03/12 04:03:02;;;;;;;15.82;7.97;;;8.90;99.90;;;;;;5117276;27;20048;-91
2022/03/12 04:05:34;;;;;;;13.82;7.18;;;6.50;99.90;;;;;;5084074;27;20114;-92
2022/03/12 04:08:08;;;;;;;15.85;7.43;;;6.70;99.90;;;;;;5118211;27;20046;-92
2022/03/12 04:10:38;;;;;;;17.33;7.53;;;6.80;99.90;;;;;;5117482;27;20136;-91
2022/03/12 04:13:19;;;;;;;17.80;8.38;;;6.60;99.90;;;;;;5119217;27;20058;-91
2022/03/12 04:15:46;;;;;;;16.95;7.28;;;6.60;99.90;;;;;;5078770;27;21148;-92
2022/03/12 04:18:15;;;;;;;13.07;6.63;;;6.60;99.90;;;;;;5089942;27;20035;-92
2022/03/12 04:20:47;;;;;;;18.13;7.40;;;5.60;99.90;;;;;;5103670;27;20057;-91
2022/03/12 04:23:21;;;;;;;17.92;7.40;;;10.50;99.90;;;;;;5118173;27;20126;-91
2022/03/12 04:25:51;;;;;;;15.55;7.57;;;6.80;99.90;;;;;;5119152;27;20051;-91
2022/03/12 04:28:19;;;;;;;15.30;7.80;;;6.50;99.90;;;;;;5100244;27;20051;-91
2022/03/12 04:30:45;;;;;;;16.63;8.05;;;6.50;99.90;;;;;;5096144;27;20574;-91
2022/03/12 04:33:14;;;;;;;19.77;7.85;;;8.60;99.90;;;;;;5101714;27;20395;-91
2022/03/12 04:35:41;;;;;;;15.77;7.22;;;7.10;99.90;;;;;;5115899;27;20403;-91
2022/03/12 04:38:09;;;;;;;18.17;7.78;;;6.50;99.90;;;;;;5098289;27;20043;-91
2022/03/12 04:40:36;;;;;;;;;;;6.90;99.90;;;;;;5118508;27;20043;-92
2022/03/12 04:43:04;;;;;;;17.80;7.85;;;6.70;99.90;;;;;;5093942;27;19923;-91
2022/03/12 04:45:34;;;;;;;14.90;8.20;;;;;;;;;;5118852;27;20067;-91
2022/03/12 04:48:00;;;;;;;14.18;6.90;;;6.00;99.90;;;;;;5116264;27;20050;-91
2022/03/12 04:50:26;;;;;;;15.05;7.32;;;6.40;99.90;;;;;;5099323;27;20425;-91
2022/03/12 04:52:57;;;;;;;15.32;7.25;;;6.50;99.90;;;;;;5077825;28;20135;-92
2022/03/12 04:55:25;;;;;;;13.35;6.90;;;6.50;99.90;;;;;;5114810;27;20039;-91
2022/03/12 04:57:52;;;;;;;;;;;8.50;99.90;;;;;;5123247;27;20499;-91
2022/03/12 05:00:31;;;;;;;17.00;8.05;;;7.50;99.90;;;;;;5120662;27;19968;-91
2022/03/12 05:03:18;;;;;;;16.13;7.53;;;7.50;99.90;;;;;;5097146;27;20045;-91
2022/03/12 05:05:48;;;;;;;13.27;7.38;;;6.40;99.90;;;;;;5116998;27;20117;-91
2022/03/12 05:08:17;;;;;;;13.73;7.10;;;8.60;99.90;;;;;;5096778;27;20085;-91
2022/03/12 05:10:49;;;;;;;15.25;7.70;;;6.40;99.90;;;;;;5120418;27;20074;-91
2022/03/12 05:13:22;;;;;;;17.40;7.40;;;8.40;99.90;;;;;;5080417;27;20039;-91
2022/03/12 05:15:53;;;;;;;13.93;7.03;;;6.50;99.90;;;;;;5078078;28;20044;-91
2022/03/12 05:18:23;;;;;;;14.05;7.03;;;6.50;99.90;;;;;;5098061;27;20114;-91
2022/03/12 05:20:50;;;;;;;13.45;7.40;;;8.60;99.90;;;;;;5132856;27;20131;-91
2022/03/12 05:23:17;;;;;;;14.73;7.18;;;7.60;99.90;;;;;;5115051;27;20518;-91
2022/03/12 05:25:47;;;;;;;16.10;7.90;;;8.20;99.90;;;;;;5094750;27;20125;-91
2022/03/12 05:28:16;;;;;;;15.63;7.50;;;6.30;99.90;;;;;;5094656;28;20079;-90
2022/03/12 05:30:46;;;;;;;14.45;7.70;;;6.30;99.90;;;;;;5113032;27;20128;-91
2022/03/12 05:33:16;;;;;;;14.07;7.15;;;6.70;99.90;;;;;;5103894;28;20424;-91
2022/03/12 05:35:44;;;;;;;16.27;8.10;;;6.50;99.90;;;;;;5076756;28;20494;-91
2022/03/12 05:38:11;;;;;;;15.20;7.63;;;8.40;99.90;;;;;;5096225;28;20051;-91
2022/03/12 05:40:38;;;;;;;16.05;7.47;;;6.30;99.90;;;;;;5111358;27;20102;-91
2022/03/12 05:43:14;;;;;;;16.60;7.67;;;6.40;99.90;;;;;;5094485;28;20425;-90
2022/03/12 05:45:47;;;;;;;15.13;7.53;;;6.70;99.90;;;;;;5092800;27;20189;-91
2022/03/12 05:48:14;;;;;;;14.45;7.32;;;6.40;99.90;;;;;;5118635;27;20039;-91
2022/03/12 05:50:42;;;;;;;14.40;7.32;;;6.40;99.90;;;;;;5113093;27;20390;-91
2022/03/12 05:53:09;;;;;;;12.65;6.78;;;6.30;99.90;;;;;;5096787;28;20068;-91
2022/03/12 05:55:39;;;;;;;15.48;7.10;;;8.30;99.90;;;;;;5096088;28;20054;-91
2022/03/12 05:58:07;;;;;;;14.43;7.25;;;6.30;99.90;;;;;;5115732;27;20112;-91
2022/03/12 06:00:33;;;;;;;17.05;7.95;;;7.50;99.90;;;;;;5112389;27;20055;-91
2022/03/12 06:03:00;;;;;;;20.73;7.13;;;6.30;99.90;;;;;;5102850;28;20077;-91
2022/03/12 06:05:26;;;;;;;13.05;7.25;;;6.60;99.90;;;;;;5117548;28;20047;-91
2022/03/12 06:07:53;;;;;;;17.98;7.30;;;6.20;99.90;;;;;;5097201;28;20043;-91
2022/03/12 06:10:24;;;;;;;14.40;7.10;;;6.20;99.90;;;;;;5102180;28;20049;-90
2022/03/12 06:12:53;;;;;;;13.20;6.90;;;6.40;99.90;;;;;;5097023;27;20048;-92
2022/03/12 06:15:22;;;;;;;17.67;7.78;;;6.20;99.90;;;;;;5102596;27;20040;-92
2022/03/12 06:17:49;;;;;;;14.52;7.55;;;8.60;99.90;;;;;;5117874;27;20091;-91
2022/03/12 06:20:23;;;;;;;17.90;7.63;;;4.20;99.90;;;;;;5102385;27;20055;-91
2022/03/12 06:22:53;;;;;;;15.88;6.93;;;6.40;99.90;;;;;;5097305;27;20039;-91
2022/03/12 06:25:20;;;;;;;15.60;7.53;;;6.20;99.90;;;;;;5102417;27;20035;-92
2022/03/12 06:27:52;;;;;;;13.65;7.15;;;6.20;99.90;;;;;;5076598;27;20279;-93
2022/03/12 06:30:18;;;;;;;14.80;7.10;;;;;;;;;;5121526;27;20054;-91
2022/03/12 06:32:44;;;;;;;12.05;6.47;;;6.30;99.90;;;;;;5117098;27;20048;-91
2022/03/12 06:35:12;;;;;;;19.65;7.38;;;6.20;99.90;;;;;;5121283;27;20078;-91
2022/03/12 06:37:39;;;;;;;14.65;7.20;;;6.40;99.90;;;;;;5119660;27;20043;-90
2022/03/12 06:40:08;;;;;;;16.67;7.50;;;5.40;99.90;;;;;;5102439;27;20043;-90
2022/03/12 06:42:35;;;;;;;15.80;6.40;;;6.20;99.90;;;;;;5116906;27;20496;-91
2022/03/12 06:45:01;;;;;;;15.00;7.53;;;6.40;99.90;;;;;;5122456;27;20385;-89
2022/03/12 06:47:31;;;;;;;15.25;7.75;;;;;;;;;;5129864;27;20503;-92
2022/03/12 06:50:01;;;;;;;18.73;7.63;;;6.30;99.90;;;;;;5106728;27;20137;-91
2022/03/12 06:52:28;;;;;;;14.15;7.22;;;6.30;99.90;;;;;;5136135;27;20516;-91
2022/03/12 06:54:56;;;;;;;15.07;6.95;;;5.50;99.90;;;;;;5102188;27;20055;-90
2022/03/12 06:57:34;;;;;;;15.77;7.07;;;6.40;99.90;;;;;;5116430;27;20058;-89
2022/03/12 07:00:00;;;;;;;;;;;6.50;99.90;;;;;;5124020;27;20784;-89
2022/03/12 07:02:28;;;;;;;14.95;7.32;;;6.50;99.90;;;;;;5110650;27;19919;-90
2022/03/12 07:04:53;;;;;;;18.83;7.38;;;8.10;99.90;;;;;;5132644;27;20034;-89
2022/03/12 07:07:19;;;;;;;21.30;7.97;;;8.40;99.90;;;;;;5109540;27;20043;-89
2022/03/12 07:09:45;;;;;;;14.40;7.13;;;6.50;99.90;;;;;;5089882;28;20136;-86
2022/03/12 07:12:11;;;;;;;15.52;7.70;;;8.20;99.90;;;;;;5119326;27;20044;-88
2022/03/12 07:14:37;;;;;;;19.30;8.00;;;6.70;99.90;;;;;;5116568;27;20050;-89
2022/03/12 07:17:03;;;;;;;14.27;7.55;;;6.70;99.90;;;;;;5101258;27;20043;-91
2022/03/12 07:19:29;;;;;;;18.20;8.52;;;6.70;99.90;;;;;;5116952;27;20150;-88
2022/03/12 07:21:55;;;;;;;15.02;7.40;;;;;;;;;;5124029;27;20107;-88
2022/03/12 07:24:21;;;;;;;13.75;7.93;;;6.70;99.90;;;;;;5133298;27;20035;-87
2022/03/12 07:26:47;;;;;;;16.20;7.80;;;6.60;99.90;;;;;;5114656;27;20097;-89
2022/03/12 07:29:13;;;;;;;23.10;7.55;;;6.50;99.90;;;;;;5097449;27;20043;-90
2022/03/12 07:31:39;;;;;;;16.17;7.70;;;6.40;99.90;;;;;;5110034;27;20360;-89
2022/03/12 07:34:07;;;;;;;19.05;7.53;;;6.70;99.90;;;;;;5096040;27;20072;-88
2022/03/12 07:36:33;;;;;;;;;;;6.70;99.90;;;;;;5135935;27;20413;-88
2022/03/12 07:39:02;;;;;;;22.15;8.50;;;5.60;99.90;;;;;;5128992;27;19923;-85
2022/03/12 07:41:29;;;;;;;14.93;7.65;;;6.80;99.90;;;;;;5116654;27;20043;-89
2022/03/12 07:43:55;;;;;;;16.50;7.07;;;6.90;99.90;;;;;;5096308;27;20459;-90
2022/03/12 07:46:21;;;;;;;17.58;8.00;;;7.00;99.90;;;;;;5114965;27;20040;-89
2022/03/12 07:48:48;;;;;;;15.57;7.43;;;8.60;99.90;;;;;;5095916;27;20077;-88
2022/03/12 07:51:17;;;;;;;15.27;7.20;;;9.10;99.90;;;;;;5089423;27;20055;-90
2022/03/12 07:53:43;;;;;;;19.67;7.50;;;5.60;99.90;;;;;;5088675;27;20456;-90
2022/03/12 07:56:09;;;;;;;15.13;7.93;;;8.80;99.90;;;;;;5119788;27;20045;-89
2022/03/12 07:58:36;;;;;;;15.30;7.78;;;7.20;99.90;;;;;;5113784;27;20054;-90
2022/03/12 08:01:03;;;;;;;16.17;7.30;;;7.30;99.90;;;;;;5087426;27;20131;-89
2022/03/12 08:03:29;;;;;;;17.90;8.50;;;7.50;99.90;;;;;;5115292;27;20074;-88
2022/03/12 08:05:55;;;;;;;20.55;8.90;;;7.50;99.90;;;;;;5081689;27;20050;-89
2022/03/12 08:08:21;;;;;;;19.33;8.43;;;9.30;99.90;;;;;;5100648;27;20600;-90
2022/03/12 08:13:32;;;;;;;16.92;8.35;;;8.70;99.90;;;;;;5115608;27;20103;-91
2022/03/12 08:15:59;;;;;;;18.52;8.43;;;9.00;99.90;;;;;;5089408;28;20054;-90
2022/03/12 08:18:25;;;;;;;16.55;8.40;;;9.10;99.90;;;;;;5097664;28;20040;-90
2022/03/12 08:20:51;;;;;;;19.27;8.68;;;10.60;99.90;;;;;;5126422;27;20036;-90
2022/03/12 08:23:17;;;;;;;18.42;9.25;;;9.50;99.90;;;;;;5095395;28;20055;-88
2022/03/12 08:25:42;;;;;;;19.98;8.88;;;9.70;99.90;;;;;;5121013;27;20039;-88
2022/03/12 08:28:09;;;;;;;21.52;8.88;;;10.10;99.90;;;;;;5113832;27;20122;-89
2022/03/12 08:30:36;;;;;;;19.67;8.75;;;10.60;99.90;;;;;;5110670;27;20054;-89
2022/03/12 08:33:04;;;;;;;17.40;8.85;;;10.70;99.90;;;;;;5129888;27;20049;-89
2022/03/12 08:35:31;;;;;;;17.58;8.60;;;10.70;99.90;;;;;;5121565;27;20031;-89
2022/03/12 08:37:57;;;;;;;15.20;8.82;;;9.70;99.90;;;;;;5095928;27;20122;-88
2022/03/12 08:40:25;;;;;;;18.77;8.88;;;11.20;99.90;;;;;;5094554;27;20047;-89
2022/03/12 08:42:53;;;;;;;16.42;8.50;;;11.60;99.90;;;;;;5097485;27;20056;-90
2022/03/12 08:45:23;;;;;;;19.02;9.07;;;11.30;99.90;;;;;;5098803;28;20058;-89
2022/03/12 08:47:49;;;;;;;15.30;8.57;;;11.50;99.90;;;;;;5120355;27;20054;-91
2022/03/12 08:50:16;;;;;;;17.45;8.30;;;12.10;99.90;;;;;;5123945;27;20039;-88
2022/03/12 08:52:46;;;;;;;19.23;9.13;;;11.40;99.90;;;;;;5104537;27;20051;-90
2022/03/12 08:55:13;;;;;;;20.75;8.98;;;11.40;99.90;;;;;;5111064;27;20078;-90
2022/03/12 08:57:39;;;;;;;16.27;8.52;;;11.40;99.90;;;;;;5100908;28;20440;-91
2022/03/12 09:00:10;;;;;;;20.30;8.90;;;11.40;99.90;;;;;;5080347;27;20397;-88
2022/03/12 09:02:37;;;;;;;19.02;8.95;;;11.40;99.90;;;;;;5125605;27;20054;-90
2022/03/12 09:05:12;;;;;;;19.83;9.33;;;11.60;99.90;;;;;;5112739;28;20069;-92
2022/03/12 09:07:39;;;;;;;18.63;9.43;;;11.80;99.90;;;;;;5085565;27;20308;-91
2022/03/12 09:10:05;;;;;;;18.40;9.35;;;12.00;99.90;;;;;;5122815;27;20134;-90
2022/03/12 09:12:32;;;;;;;18.10;9.65;;;12.30;99.90;;;;;;5098491;27;20049;-92
2022/03/12 09:14:58;;;;;;;20.63;9.52;;;12.20;99.90;;;;;;5132748;27;20421;-90
2022/03/12 09:17:23;;;;;;;18.02;9.05;;;12.90;99.90;;;;;;5114944;27;20119;-89
2022/03/12 09:19:49;;;;;;;15.90;8.95;;;12.80;99.90;;;;;;5109957;27;20039;-90
2022/03/12 09:22:15;;;;;;;18.70;9.45;;;12.80;99.90;;;;;;5076976;28;20091;-92
2022/03/12 09:24:41;;;;;;;18.52;9.40;;;13.00;99.90;;;;;;5102708;27;20123;-91
2022/03/12 09:27:08;;;;;;;20.15;9.25;;;13.50;99.90;;;;;;5121483;27;20035;-91
2022/03/12 09:29:35;;;;;;;18.17;8.93;;;13.70;99.90;;;;;;5099128;28;20035;-90
2022/03/12 09:32:01;;;;;;;16.40;9.20;;;15.80;99.90;;;;;;5089374;28;20032;-90
2022/03/12 09:34:30;;;;;;;17.42;8.18;;;13.80;99.90;;;;;;5095468;28;20059;-91
2022/03/12 09:36:56;;;;;;;17.27;8.88;;;13.40;99.90;;;;;;5113513;27;20121;-87
2022/03/12 09:39:22;;;;;;;15.82;8.88;;;13.70;99.90;;;;;;5127823;27;20119;-89
2022/03/12 09:41:47;;;;;;;16.15;8.85;;;14.20;99.90;;;;;;5100676;28;20035;-89
2022/03/12 09:44:13;;;;;;;15.52;8.60;;;13.30;99.90;;;;;;5103992;28;20123;-91
2022/03/12 09:46:39;;;;;;;17.50;9.25;;;13.20;99.90;;;;;;5111955;28;20035;-90
2022/03/12 09:49:05;;;;;;;18.17;8.73;;;13.60;99.90;;;;;;5113958;27;20062;-87
2022/03/12 09:51:31;;;;;;;18.67;9.13;;;13.60;99.90;;;;;;5126928;27;20062;-89
2022/03/12 09:54:00;;;;;;;16.23;8.90;;;13.60;99.90;;;;;;5093591;28;20074;-89
2022/03/12 09:56:26;;;;;;;16.95;9.23;;;13.60;99.90;;;;;;5115067;28;20356;-92
2022/03/12 09:59:00;;;;;;;20.55;9.23;;;13.70;99.90;;;;;;5113152;28;20075;-91
2022/03/12 10:01:26;;;;;;;19.42;9.35;;;13.70;99.90;;;;;;5113384;28;20079;-88
2022/03/12 10:03:52;;;;;;;19.10;9.43;;;14.00;99.90;;;;;;5115360;28;20071;-90
2022/03/12 10:06:18;;;;;;;21.38;9.52;;;13.80;99.90;;;;;;5091743;28;20438;-88
2022/03/12 10:08:44;;;;;;;15.63;8.68;;;14.00;99.90;;;;;;5096668;28;20035;-90
2022/03/12 10:11:10;;;;;;;18.50;9.65;;;14.00;99.90;;;;;;5121313;28;20055;-88
2022/03/12 10:13:36;;;;;;;22.80;9.15;;;13.70;1.00;;;;;;5116543;27;20047;-87
2022/03/12 10:16:03;;;;;;;18.35;9.98;;;13.70;99.90;;;;;;5120388;27;20051;-90
2022/03/12 10:18:30;;;;;;;20.27;10.05;;;13.50;99.90;;;;;;5097517;28;20039;-88
2022/03/12 10:21:00;;;;;;;16.90;9.82;;;13.40;99.90;;;;;;5118716;28;20061;-90
2022/03/12 10:23:26;;;;;;;19.70;9.95;;;14.40;99.90;;;;;;5096651;28;20045;-89
2022/03/12 10:25:52;;;;;;;20.27;10.07;;;13.40;99.90;;;;;;5094092;28;20067;-87
2022/03/12 10:28:18;;;;;;;18.00;10.13;;;13.30;1.00;;;;;;5130391;27;20058;-90
2022/03/12 10:30:44;;;;;;;17.50;9.77;;;13.20;1.00;;;;;;5128526;28;20043;-89
2022/03/12 10:33:19;;;;;;;19.95;10.40;;;13.20;1.00;;;;;;5123021;28;20043;-91
2022/03/12 10:35:45;;;;;;;18.58;10.27;;;13.60;1.00;;;;;;5123628;28;20095;-92
2022/03/12 10:38:12;;;;;;;18.90;10.15;;;13.40;1.00;;;;;;5123601;28;20036;-92
2022/03/12 10:40:38;;;;;;;21.23;9.95;;;13.70;1.00;;;;;;5111351;28;20512;-88
2022/03/12 10:43:12;;;;;;;19.58;10.25;;;13.50;1.00;;;;;;5101343;28;20378;-90
2022/03/12 10:45:48;;;;;;;24.52;10.10;;;13.90;1.00;;;;;;5103871;27;20047;-88
2022/03/12 10:48:19;;;;;;;17.92;9.02;;;14.30;1.00;;;;;;5106018;28;20038;-88
2022/03/12 10:50:47;;;;;;;15.20;9.20;;;14.50;99.90;;;;;;5105836;28;20051;-88
2022/03/12 10:53:15;;;;;;;18.02;8.88;;;14.70;1.00;;;;;;5106108;28;20047;-90
2022/03/12 10:55:44;;;;;;;15.35;9.40;;;14.60;1.00;;;;;;5110855;28;20058;-88
2022/03/12 10:58:13;;;;;;;17.00;9.93;;;14.30;1.00;;;;;;5110536;28;20095;-88
2022/03/12 11:00:53;;;;;;;15.30;8.00;;;14.00;1.00;;;;;;5125599;27;20051;-89
2022/03/12 11:03:25;;;;;;;18.30;8.30;;;14.20;1.00;;;;;;5094983;27;20047;-88
2022/03/12 11:05:52;;;;;;;14.90;7.70;;;15.70;1.00;;;;;;5119224;27;20103;-88
2022/03/12 11:08:20;;;;;;;16.23;7.45;;;14.10;1.00;;;;;;5139367;27;20031;-89
2022/03/12 11:10:50;;;;;;;14.45;7.32;;;14.20;1.00;;;;;;5138014;28;20028;-88
2022/03/12 11:14:07;;;;;;;11.80;6.38;;;14.40;1.00;;;;;;5140917;27;20035;-89
2022/03/12 11:16:33;;;;;;;15.68;7.90;;;14.50;1.00;;;;;;5118054;27;20035;-89
2022/03/12 11:19:10;;;;;;;15.13;7.13;;;14.70;1.00;;;;;;5121022;28;20122;-89
2022/03/12 11:21:52;;;;;;;15.05;7.43;;;14.90;1.00;;;;;;5130928;28;20079;-89
2022/03/12 11:24:25;;;;;;;15.20;7.47;;;14.90;1.00;;;;;;5127000;27;20048;-87
2022/03/12 11:26:58;;;;;;;15.15;6.93;;;14.50;1.00;;;;;;5112485;27;20051;-88
2022/03/12 11:29:27;;;;;;;18.75;7.18;;;14.30;1.00;;;;;;5128057;27;20055;-88
2022/03/12 11:32:05;;;;;;;15.52;7.53;;;14.30;1.00;;;;;;5120981;27;20097;-89
2022/03/12 11:34:41;;;;;;;14.38;7.40;;;14.40;1.00;;;;;;5115174;28;20047;-87
2022/03/12 11:37:16;;;;;;;16.95;7.95;;;14.80;1.00;;;;;;5095821;27;20058;-88
2022/03/12 11:39:51;;;;;;;19.33;7.25;;;14.80;1.00;;;;;;5134890;27;20035;-87
2022/03/12 11:42:23;;;;;;;16.70;7.53;;;15.20;1.00;;;;;;5120834;27;20050;-86
2022/03/12 11:44:54;;;;;;;14.27;7.78;;;15.50;1.00;;;;;;5122935;27;20114;-87
2022/03/12 11:47:26;;;;;;;15.23;7.40;;;15.80;1.00;;;;;;5114241;27;20399;-87
2022/03/12 11:49:54;;;;;;;14.43;7.50;;;16.10;1.00;;;;;;5117087;27;20114;-87
2022/03/12 11:52:20;;;;;;;13.52;6.95;;;16.20;1.00;;;;;;5115785;27;20111;-87
2022/03/12 11:54:48;;;;;;;13.30;7.63;;;16.00;1.00;;;;;;5114201;27;20079;-89
2022/03/12 11:57:27;;;;;;;12.35;7.00;;;15.40;1.00;;;;;;5113596;28;20048;-85
2022/03/12 11:59:53;;;;;;;16.73;7.05;;;15.30;1.00;;;;;;5100596;28;20062;-86
2022/03/12 12:02:34;;;;;;;14.93;7.30;;;15.60;1.00;;;;;;5116482;27;20498;-88
2022/03/12 12:05:07;;;;;;;16.60;6.85;;;15.80;1.00;;;;;;5133811;27;20093;-88
2022/03/12 12:07:36;;;;;;;18.08;7.18;;;15.50;1.00;;;;;;5097331;28;20423;-87
2022/03/12 12:10:03;;;;;;;15.80;6.72;;;15.60;1.00;;;;;;5117897;27;20787;-89
2022/03/12 12:12:32;;;;;;;14.07;7.03;;;15.80;1.00;;;;;;5124504;27;20100;-88
2022/03/12 12:14:59;;;;;;;13.57;7.30;;;15.80;1.00;;;;;;5122179;27;20057;-87
2022/03/12 12:17:25;;;;;;;14.18;7.43;;;15.60;1.00;;;;;;5112273;27;20151;-88
2022/03/12 12:19:51;;;;;;;16.48;8.50;;;15.10;1.00;;;;;;5077614;28;20119;-89
2022/03/12 12:22:18;;;;;;;17.95;8.85;;;14.70;1.00;;;;;;5105978;28;20403;-89
2022/03/12 12:24:44;;;;;;;18.02;9.10;;;14.60;1.00;;;;;;5112737;27;20047;-87
2022/03/12 12:27:12;;;;;;;15.65;8.68;;;14.40;1.00;;;;;;5098224;28;20048;-88
2022/03/12 12:29:41;;;;;;;16.10;8.65;;;14.30;1.00;;;;;;5115003;27;20089;-88
2022/03/12 12:32:08;;;;;;;16.70;8.73;;;14.40;1.00;;;;;;5117640;27;20090;-89
2022/03/12 12:34:35;;;;;;;14.45;8.15;;;14.40;1.00;;;;;;5116537;27;20122;-90
2022/03/12 12:37:04;;;;;;;18.10;8.13;;;14.60;1.00;;;;;;5119085;27;20166;-88
2022/03/12 12:39:30;;;;;;;19.75;8.10;;;14.30;1.00;;;;;;5111945;28;20046;-86
2022/03/12 12:41:58;;;;;;;16.02;8.35;;;14.00;1.00;;;;;;5130052;27;20483;-88
2022/03/12 12:44:39;;;;;;;15.88;7.60;;;13.90;1.00;;;;;;5122471;27;20075;-87
2022/03/12 12:47:06;;;;;;;16.35;8.85;;;13.90;1.00;;;;;;5113020;27;20043;-88
2022/03/12 12:49:46;;;;;;;16.35;8.63;;;13.90;1.00;;;;;;5121071;27;20069;-90
2022/03/12 12:52:12;;;;;;;13.90;7.53;;;13.90;1.00;;;;;;5128829;27;20031;-88
2022/03/12 12:54:46;;;;;;;20.58;8.75;;;13.90;1.00;;;;;;5118677;27;20053;-88
2022/03/12 12:57:12;;;;;;;15.38;7.82;;;14.00;1.00;;;;;;5114706;27;20048;-88
2022/03/12 12:59:41;;;;;;;15.80;8.18;;;14.00;1.00;;;;;;5125342;27;20380;-87